createdAt,value
2019-06-02T00:00:26.079Z,25.2
2019-06-02T00:01:01.610Z,25.2
2019-06-02T00:01:34.982Z,25.17
2019-06-02T00:02:30.214Z,25.15
2019-06-02T00:03:05.288Z,25.24
2019-06-02T00:03:37.353Z,25.22
2019-06-02T00:04:09.440Z,25.19
2019-06-02T00:04:41.544Z,25.22
2019-06-02T00:05:13.643Z,25.19
2019-06-02T00:05:45.749Z,25.19
2019-06-02T00:06:17.805Z,25.19
2019-06-02T00:06:49.915Z,25.2
2019-06-02T00:07:22.012Z,25.09
2019-06-02T00:07:55.530Z,25.22
2019-06-02T00:08:28.397Z,25.05
2019-06-02T00:09:01.734Z,25.2
2019-06-02T00:09:34.652Z,25.05
2019-06-02T00:10:06.815Z,25.05
2019-06-02T00:10:39.287Z,25.19
2019-06-02T00:11:11.481Z,25.12
2019-06-02T00:11:43.583Z,25.17
2019-06-02T00:12:15.689Z,25.08
2019-06-02T00:12:47.723Z,25.15
2019-06-02T00:13:19.855Z,25.09
2019-06-02T00:13:51.961Z,25.12
2019-06-02T00:14:29.155Z,25.08
2019-06-02T00:15:10.522Z,25.08
2019-06-02T00:15:42.672Z,25.04
2019-06-02T00:16:14.760Z,25.04
2019-06-02T00:16:46.870Z,25.07
2019-06-02T00:17:18.984Z,25.04
2019-06-02T00:17:51.171Z,25.04
2019-06-02T00:18:23.313Z,25.08
2019-06-02T00:18:56.715Z,25
2019-06-02T00:19:29.127Z,25.14
2019-06-02T00:20:02.491Z,25.09
2019-06-02T00:20:35.259Z,25.05
2019-06-02T00:21:08.676Z,25.07
2019-06-02T00:21:40.789Z,25.02
2019-06-02T00:22:12.896Z,25
2019-06-02T00:22:44.996Z,25.02
2019-06-02T00:23:17.022Z,25.01
2019-06-02T00:23:49.132Z,25.01
2019-06-02T00:24:20.935Z,25.05
2019-06-02T00:24:53.043Z,25.05
2019-06-02T00:25:25.277Z,25.01
2019-06-02T00:25:58.480Z,25.02
2019-06-02T00:26:31.506Z,25.02
2019-06-02T00:27:05.169Z,24.97
2019-06-02T00:27:37.221Z,25.02
2019-06-02T00:28:09.316Z,25.01
2019-06-02T00:28:41.948Z,24.97
2019-06-02T00:29:14.054Z,25.01
2019-06-02T00:29:46.143Z,25.02
2019-06-02T00:30:18.208Z,25.01
2019-06-02T00:30:50.936Z,25.01
2019-06-02T00:31:23.061Z,24.96
2019-06-02T00:31:55.154Z,25
2019-06-02T00:32:27.856Z,24.96
2019-06-02T00:33:01.334Z,24.9
2019-06-02T00:33:34.137Z,24.87
2019-06-02T00:34:07.570Z,24.97
2019-06-02T00:34:39.698Z,24.96
2019-06-02T00:35:11.876Z,24.93
2019-06-02T00:35:43.968Z,24.94
2019-06-02T00:36:16.099Z,24.96
2019-06-02T00:36:48.142Z,24.94
2019-06-02T00:37:20.286Z,24.94
2019-06-02T00:37:52.395Z,24.94
2019-06-02T00:38:24.495Z,24.92
2019-06-02T00:38:59.274Z,24.9
2019-06-02T00:39:31.547Z,24.87
2019-06-02T00:40:04.824Z,24.89
2019-06-02T00:40:36.873Z,24.86
2019-06-02T00:41:08.965Z,24.89
2019-06-02T00:41:41.060Z,24.86
2019-06-02T00:42:13.164Z,24.83
2019-06-02T00:42:45.284Z,24.9
2019-06-02T00:43:17.336Z,24.89
2019-06-02T00:43:49.454Z,24.85
2019-06-02T00:44:21.568Z,24.85
2019-06-02T00:44:57.199Z,24.82
2019-06-02T00:45:29.323Z,24.82
2019-06-02T00:46:02.742Z,24.77
2019-06-02T00:46:35.173Z,24.83
2019-06-02T00:47:08.669Z,24.75
2019-06-02T00:47:40.787Z,24.75
2019-06-02T00:48:12.886Z,24.7
2019-06-02T00:48:44.976Z,24.77
2019-06-02T00:49:17.007Z,24.74
2019-06-02T00:49:49.114Z,24.77
2019-06-02T00:50:21.219Z,24.74
2019-06-02T00:50:53.311Z,24.78
2019-06-02T00:51:25.410Z,24.75
2019-06-02T00:52:00.329Z,24.74
2019-06-02T00:52:33.654Z,24.71
2019-06-02T00:53:08.319Z,24.83
2019-06-02T00:53:40.415Z,24.77
2019-06-02T00:54:12.521Z,24.74
2019-06-02T00:54:44.615Z,24.77
2019-06-02T00:55:16.710Z,24.66
2019-06-02T00:55:48.741Z,24.75
2019-06-02T00:56:20.897Z,24.74
2019-06-02T00:56:53.010Z,24.7
2019-06-02T00:57:25.127Z,24.71
2019-06-02T00:57:58.575Z,24.7
2019-06-02T00:58:31.588Z,24.71
2019-06-02T00:59:08.334Z,24.69
2019-06-02T00:59:40.419Z,24.74
2019-06-02T01:00:12.524Z,24.69
2019-06-02T01:00:44.639Z,24.71
2019-06-02T01:01:16.743Z,24.74
2019-06-02T01:01:48.883Z,24.7
2019-06-02T01:02:20.971Z,24.75
2019-06-02T01:02:53.094Z,24.67
2019-06-02T01:03:25.198Z,24.67
2019-06-02T01:03:58.700Z,24.66
2019-06-02T01:04:31.885Z,24.66
2019-06-02T01:05:05.510Z,24.67
2019-06-02T01:05:38.551Z,24.63
2019-06-02T01:06:10.795Z,24.59
2019-06-02T01:06:42.948Z,24.64
2019-06-02T01:07:15.035Z,24.69
2019-06-02T01:07:47.063Z,24.61
2019-06-02T01:08:19.171Z,24.63
2019-06-02T01:08:51.328Z,24.64
2019-06-02T01:09:23.420Z,24.59
2019-06-02T01:09:55.540Z,24.54
2019-06-02T01:10:28.166Z,24.59
2019-06-02T01:11:01.733Z,24.56
2019-06-02T01:11:34.475Z,24.64
2019-06-02T01:12:07.900Z,24.58
2019-06-02T01:12:40.026Z,24.63
2019-06-02T01:13:12.133Z,24.64
2019-06-02T01:13:44.229Z,24.51
2019-06-02T01:14:16.321Z,24.54
2019-06-02T01:14:48.361Z,24.56
2019-06-02T01:15:40.955Z,24.54
2019-06-02T01:16:13.052Z,24.51
2019-06-02T01:16:45.246Z,24.61
2019-06-02T01:17:17.390Z,24.56
2019-06-02T01:17:49.588Z,24.51
2019-06-02T01:18:21.695Z,24.58
2019-06-02T01:18:53.828Z,24.58
2019-06-02T01:19:25.935Z,24.55
2019-06-02T01:19:57.976Z,24.61
2019-06-02T01:20:30.993Z,24.54
2019-06-02T01:21:04.440Z,24.45
2019-06-02T01:21:37.324Z,24.49
2019-06-02T01:22:10.799Z,24.48
2019-06-02T01:22:42.911Z,24.46
2019-06-02T01:23:15.017Z,24.45
2019-06-02T01:23:47.060Z,24.45
2019-06-02T01:24:19.165Z,24.46
2019-06-02T01:24:51.268Z,24.46
2019-06-02T01:25:23.362Z,24.42
2019-06-02T01:25:55.472Z,24.54
2019-06-02T01:26:27.527Z,24.49
2019-06-02T01:27:00.987Z,24.48
2019-06-02T01:27:33.299Z,24.42
2019-06-02T01:28:06.681Z,24.49
2019-06-02T01:28:39.704Z,24.39
2019-06-02T01:29:12.002Z,24.52
2019-06-02T01:29:44.185Z,24.55
2019-06-02T01:30:16.281Z,24.52
2019-06-02T01:30:48.363Z,24.52
2019-06-02T01:31:20.492Z,24.49
2019-06-02T01:31:52.587Z,24.45
2019-06-02T01:32:24.677Z,24.4
2019-06-02T01:32:56.772Z,24.45
2019-06-02T01:33:29.521Z,24.46
2019-06-02T01:34:02.965Z,24.42
2019-06-02T01:34:35.604Z,24.44
2019-06-02T01:35:09.023Z,24.4
2019-06-02T01:35:41.123Z,24.36
2019-06-02T01:36:13.232Z,24.33
2019-06-02T01:36:45.347Z,24.4
2019-06-02T01:37:17.419Z,24.34
2019-06-02T01:37:49.542Z,24.4
2019-06-02T01:38:21.659Z,24.42
2019-06-02T01:38:53.746Z,24.4
2019-06-02T01:39:25.870Z,24.33
2019-06-02T01:39:57.985Z,24.29
2019-06-02T01:40:30.345Z,24.39
2019-06-02T01:41:04.057Z,24.39
2019-06-02T01:41:36.521Z,24.39
2019-06-02T01:42:11.377Z,24.33
2019-06-02T01:42:43.480Z,24.36
2019-06-02T01:43:15.595Z,24.36
2019-06-02T01:43:47.641Z,24.32
2019-06-02T01:44:19.827Z,24.32
2019-06-02T01:44:51.921Z,24.27
2019-06-02T01:45:29.099Z,24.29
2019-06-02T01:46:12.522Z,24.27
2019-06-02T01:46:44.632Z,24.29
2019-06-02T01:47:16.729Z,24.33
2019-06-02T01:47:48.776Z,24.27
2019-06-02T01:48:20.878Z,24.3
2019-06-02T01:48:53.023Z,24.27
2019-06-02T01:49:25.189Z,24.27
2019-06-02T01:49:57.291Z,24.27
2019-06-02T01:50:30.501Z,24.22
2019-06-02T01:51:03.802Z,24.27
2019-06-02T01:51:36.951Z,24.26
2019-06-02T01:52:10.383Z,24.22
2019-06-02T01:52:42.500Z,24.21
2019-06-02T01:53:14.593Z,24.24
2019-06-02T01:53:46.698Z,24.19
2019-06-02T01:54:18.746Z,24.24
2019-06-02T01:54:50.839Z,24.26
2019-06-02T01:55:22.933Z,24.26
2019-06-02T01:55:55.063Z,24.22
2019-06-02T01:56:27.112Z,24.26
2019-06-02T01:56:59.210Z,24.27
2019-06-02T01:57:31.310Z,24.26
2019-06-02T01:58:04.852Z,24.27
2019-06-02T01:58:37.385Z,24.21
2019-06-02T01:59:10.672Z,24.18
2019-06-02T01:59:42.773Z,24.12
2019-06-02T02:00:14.872Z,24.21
2019-06-02T02:00:46.931Z,24.18
2019-06-02T02:01:19.100Z,24.18
2019-06-02T02:01:51.205Z,24.18
2019-06-02T02:02:23.303Z,24.21
2019-06-02T02:02:55.422Z,24.27
2019-06-02T02:03:27.466Z,24.17
2019-06-02T02:03:59.551Z,24.15
2019-06-02T02:04:31.640Z,24.18
2019-06-02T02:05:05.249Z,24.19
2019-06-02T02:05:37.966Z,24.18
2019-06-02T02:06:13.491Z,24.11
2019-06-02T02:06:45.940Z,24.15
2019-06-02T02:07:17.997Z,24.19
2019-06-02T02:07:50.104Z,24.18
2019-06-02T02:08:22.203Z,24.17
2019-06-02T02:08:54.317Z,24.17
2019-06-02T02:09:26.443Z,24.18
2019-06-02T02:09:58.504Z,24.17
2019-06-02T02:10:31.536Z,24.11
2019-06-02T02:11:05.068Z,24.17
2019-06-02T02:11:38.240Z,24.07
2019-06-02T02:12:11.834Z,24.08
2019-06-02T02:12:43.965Z,24.12
2019-06-02T02:13:16.057Z,24.12
2019-06-02T02:13:48.101Z,24.17
2019-06-02T02:14:20.205Z,24.14
2019-06-02T02:14:52.349Z,24.11
2019-06-02T02:15:24.449Z,24.12
2019-06-02T02:16:00.696Z,24.11
2019-06-02T02:16:35.055Z,24.14
2019-06-02T02:17:08.399Z,24.08
2019-06-02T02:17:42.516Z,24.17
2019-06-02T02:18:14.854Z,24.09
2019-06-02T02:18:46.896Z,24.04
2019-06-02T02:19:19.000Z,24.03
2019-06-02T02:19:51.103Z,24.08
2019-06-02T02:20:23.223Z,24.08
2019-06-02T02:20:55.354Z,24.12
2019-06-02T02:21:27.401Z,24.08
2019-06-02T02:21:59.509Z,24.07
2019-06-02T02:22:31.615Z,24.14
2019-06-02T02:23:05.510Z,24.11
2019-06-02T02:23:38.888Z,24
2019-06-02T02:24:14.255Z,24.09
2019-06-02T02:24:46.396Z,24.02
2019-06-02T02:25:18.440Z,24.14
2019-06-02T02:25:50.569Z,24.02
2019-06-02T02:26:22.681Z,23.97
2019-06-02T02:26:54.784Z,24.03
2019-06-02T02:27:26.830Z,24
2019-06-02T02:27:58.929Z,24
2019-06-02T02:28:31.036Z,23.97
2019-06-02T02:29:03.187Z,23.93
2019-06-02T02:29:36.348Z,23.92
2019-06-02T02:30:09.985Z,23.99
2019-06-02T02:30:42.995Z,23.94
2019-06-02T02:31:19.056Z,23.99
2019-06-02T02:31:51.171Z,23.89
2019-06-02T02:32:23.297Z,23.94
2019-06-02T02:32:55.416Z,23.96
2019-06-02T02:33:27.480Z,23.94
2019-06-02T02:33:59.638Z,24
2019-06-02T02:34:31.752Z,23.97
2019-06-02T02:35:03.859Z,23.96
2019-06-02T02:35:36.591Z,24.02
2019-06-02T02:36:14.470Z,24
2019-06-02T02:36:46.582Z,24.02
2019-06-02T02:37:18.633Z,23.96
2019-06-02T02:37:50.742Z,23.9
2019-06-02T02:38:22.853Z,23.99
2019-06-02T02:38:54.969Z,23.9
2019-06-02T02:39:27.015Z,23.87
2019-06-02T02:39:59.129Z,23.94
2019-06-02T02:40:31.255Z,23.93
2019-06-02T02:41:03.379Z,23.92
2019-06-02T02:41:36.646Z,23.93
2019-06-02T02:42:14.097Z,23.94
2019-06-02T02:42:48.600Z,23.93
2019-06-02T02:43:20.936Z,23.93
2019-06-02T02:43:53.079Z,23.81
2019-06-02T02:44:25.184Z,23.93
2019-06-02T02:44:57.266Z,23.93
2019-06-02T02:45:29.374Z,23.87
2019-06-02T02:46:11.639Z,23.89
2019-06-02T02:46:47.198Z,23.84
2019-06-02T02:47:19.405Z,23.79
2019-06-02T02:47:51.508Z,23.85
2019-06-02T02:48:23.607Z,23.82
2019-06-02T02:48:55.721Z,23.89
2019-06-02T02:49:27.799Z,23.85
2019-06-02T02:49:59.905Z,23.84
2019-06-02T02:50:32.137Z,23.77
2019-06-02T02:51:04.302Z,23.85
2019-06-02T02:51:37.421Z,23.79
2019-06-02T02:52:14.712Z,23.84
2019-06-02T02:52:47.129Z,23.79
2019-06-02T02:53:19.318Z,23.79
2019-06-02T02:53:51.449Z,23.79
2019-06-02T02:54:23.572Z,23.82
2019-06-02T02:54:55.702Z,23.84
2019-06-02T02:55:27.761Z,23.79
2019-06-02T02:55:59.881Z,23.82
2019-06-02T02:56:31.991Z,23.74
2019-06-02T02:57:04.113Z,23.74
2019-06-02T02:57:38.034Z,23.79
2019-06-02T02:58:18.940Z,23.77
2019-06-02T02:58:51.065Z,23.77
2019-06-02T02:59:23.223Z,23.75
2019-06-02T02:59:55.329Z,23.75
2019-06-02T03:00:27.384Z,23.72
2019-06-02T03:00:59.494Z,23.77
2019-06-02T03:01:31.607Z,23.75
2019-06-02T03:02:03.723Z,23.74
2019-06-02T03:02:37.413Z,23.74
2019-06-02T03:03:15.869Z,23.77
2019-06-02T03:03:47.924Z,23.74
2019-06-02T03:04:20.028Z,23.75
2019-06-02T03:04:52.150Z,23.74
2019-06-02T03:05:24.940Z,23.72
2019-06-02T03:05:57.013Z,23.77
2019-06-02T03:06:29.255Z,23.75
2019-06-02T03:07:01.396Z,23.67
2019-06-02T03:07:33.543Z,23.66
2019-06-02T03:08:10.963Z,23.71
2019-06-02T03:08:44.889Z,23.64
2019-06-02T03:09:18.984Z,23.7
2019-06-02T03:09:51.107Z,23.71
2019-06-02T03:10:23.216Z,23.71
2019-06-02T03:10:55.340Z,23.71
2019-06-02T03:11:27.386Z,23.72
2019-06-02T03:11:59.502Z,23.71
2019-06-02T03:12:31.597Z,23.66
2019-06-02T03:13:03.714Z,23.7
2019-06-02T03:13:35.913Z,23.72
2019-06-02T03:14:10.325Z,23.71
2019-06-02T03:14:43.631Z,23.64
2019-06-02T03:15:17.566Z,23.71
2019-06-02T03:15:49.675Z,23.67
2019-06-02T03:16:32.075Z,23.63
2019-06-02T03:17:11.156Z,23.6
2019-06-02T03:17:45.381Z,23.7
2019-06-02T03:18:20.191Z,23.64
2019-06-02T03:18:52.315Z,23.62
2019-06-02T03:19:24.435Z,23.66
2019-06-02T03:19:56.533Z,23.62
2019-06-02T03:20:28.596Z,23.59
2019-06-02T03:21:00.685Z,23.66
2019-06-02T03:21:32.778Z,23.57
2019-06-02T03:22:04.896Z,23.56
2019-06-02T03:22:38.892Z,23.59
2019-06-02T03:23:20.139Z,23.59
2019-06-02T03:23:52.265Z,23.62
2019-06-02T03:24:24.380Z,23.59
2019-06-02T03:24:56.497Z,23.59
2019-06-02T03:25:28.548Z,23.56
2019-06-02T03:26:00.655Z,23.6
2019-06-02T03:26:32.759Z,23.6
2019-06-02T03:27:04.864Z,23.57
2019-06-02T03:27:39.018Z,23.59
2019-06-02T03:28:19.359Z,23.57
2019-06-02T03:28:51.490Z,23.56
2019-06-02T03:29:23.597Z,23.56
2019-06-02T03:29:55.715Z,23.62
2019-06-02T03:30:27.800Z,23.56
2019-06-02T03:31:00.510Z,23.6
2019-06-02T03:31:32.706Z,23.55
2019-06-02T03:32:04.835Z,23.55
2019-06-02T03:32:40.470Z,23.57
2019-06-02T03:33:33.457Z,23.57
2019-06-02T03:34:05.580Z,23.6
2019-06-02T03:34:39.412Z,23.55
2019-06-02T03:35:30.202Z,23.53
2019-06-02T03:36:02.325Z,23.5
2019-06-02T03:36:34.485Z,23.59
2019-06-02T03:37:16.681Z,23.52
2019-06-02T03:37:49.247Z,23.59
2019-06-02T03:38:21.490Z,23.5
2019-06-02T03:38:53.603Z,23.59
2019-06-02T03:39:25.790Z,23.56
2019-06-02T03:39:57.847Z,23.53
2019-06-02T03:40:29.980Z,23.6
2019-06-02T03:41:02.086Z,23.53
2019-06-02T03:41:34.226Z,23.56
2019-06-02T03:42:06.341Z,23.53
2019-06-02T03:42:40.668Z,23.5
2019-06-02T03:43:20.735Z,23.53
2019-06-02T03:43:52.835Z,23.55
2019-06-02T03:44:24.970Z,23.52
2019-06-02T03:44:57.081Z,23.53
2019-06-02T03:45:29.168Z,23.56
2019-06-02T03:46:01.272Z,23.5
2019-06-02T03:46:51.345Z,23.55
2019-06-02T03:47:41.442Z,23.56
2019-06-02T03:48:21.369Z,23.56
2019-06-02T03:48:53.439Z,23.52
2019-06-02T03:49:25.539Z,23.52
2019-06-02T03:49:57.597Z,23.55
2019-06-02T03:50:29.721Z,23.59
2019-06-02T03:51:01.817Z,23.53
2019-06-02T03:51:33.956Z,23.57
2019-06-02T03:52:06.069Z,23.56
2019-06-02T03:52:39.235Z,23.5
2019-06-02T03:53:22.669Z,23.55
2019-06-02T03:53:54.782Z,23.55
2019-06-02T03:54:26.672Z,23.55
2019-06-02T03:54:58.726Z,23.6
2019-06-02T03:55:35.484Z,23.52
2019-06-02T03:56:11.488Z,23.53
2019-06-02T03:56:44.560Z,23.57
2019-06-02T03:57:20.065Z,23.48
2019-06-02T03:57:52.179Z,23.57
2019-06-02T03:58:24.297Z,23.6
2019-06-02T03:58:56.408Z,23.53
2019-06-02T03:59:28.451Z,23.52
2019-06-02T04:00:00.556Z,23.48
2019-06-02T04:00:32.719Z,23.5
2019-06-02T04:01:04.819Z,23.53
2019-06-02T04:01:38.313Z,23.59
2019-06-02T04:02:11.966Z,23.47
2019-06-02T04:02:46.047Z,23.5
2019-06-02T04:03:22.711Z,23.55
2019-06-02T04:03:54.816Z,23.55
2019-06-02T04:04:26.896Z,23.53
2019-06-02T04:04:59.001Z,23.57
2019-06-02T04:05:31.126Z,23.59
2019-06-02T04:06:03.258Z,23.52
2019-06-02T04:06:35.384Z,23.57
2019-06-02T04:07:07.434Z,23.53
2019-06-02T04:07:41.388Z,23.6
2019-06-02T04:08:20.899Z,23.59
2019-06-02T04:08:53.010Z,23.53
2019-06-02T04:09:25.137Z,23.53
2019-06-02T04:09:57.199Z,23.55
2019-06-02T04:10:29.305Z,23.53
2019-06-02T04:11:01.124Z,23.59
2019-06-02T04:11:33.228Z,23.48
2019-06-02T04:12:06.068Z,23.5
2019-06-02T04:12:39.571Z,23.6
2019-06-02T04:13:15.238Z,23.52
2019-06-02T04:13:47.661Z,23.52
2019-06-02T04:14:21.875Z,23.52
2019-06-02T04:14:53.996Z,23.6
2019-06-02T04:15:26.123Z,23.52
2019-06-02T04:15:58.191Z,23.6
2019-06-02T04:16:30.286Z,23.52
2019-06-02T04:17:12.910Z,23.52
2019-06-02T04:17:46.382Z,23.56
2019-06-02T04:18:22.980Z,23.63
2019-06-02T04:18:55.100Z,23.5
2019-06-02T04:19:27.159Z,23.57
2019-06-02T04:19:59.296Z,23.53
2019-06-02T04:20:31.401Z,23.55
2019-06-02T04:21:03.529Z,23.56
2019-06-02T04:21:35.670Z,23.55
2019-06-02T04:22:07.729Z,23.56
2019-06-02T04:22:40.364Z,23.52
2019-06-02T04:23:21.994Z,23.53
2019-06-02T04:23:54.117Z,23.56
2019-06-02T04:24:26.261Z,23.56
2019-06-02T04:24:58.312Z,23.53
2019-06-02T04:25:30.448Z,23.53
2019-06-02T04:26:02.263Z,23.57
2019-06-02T04:26:34.383Z,23.53
2019-06-02T04:27:06.492Z,23.59
2019-06-02T04:27:39.916Z,23.53
2019-06-02T04:28:15.775Z,23.5
2019-06-02T04:28:48.713Z,23.55
2019-06-02T04:29:22.197Z,23.5
2019-06-02T04:29:54.326Z,23.6
2019-06-02T04:30:26.440Z,23.59
2019-06-02T04:30:58.495Z,23.56
2019-06-02T04:31:30.601Z,23.59
2019-06-02T04:32:02.717Z,23.56
2019-06-02T04:32:34.850Z,23.59
2019-06-02T04:33:06.924Z,23.55
2019-06-02T04:33:40.437Z,23.6
2019-06-02T04:34:15.839Z,23.59
2019-06-02T04:34:49.048Z,23.62
2019-06-02T04:35:23.082Z,23.55
2019-06-02T04:35:55.217Z,23.56
2019-06-02T04:36:27.283Z,23.59
2019-06-02T04:36:59.404Z,23.59
2019-06-02T04:37:31.529Z,23.62
2019-06-02T04:38:03.643Z,23.64
2019-06-02T04:38:35.789Z,23.6
2019-06-02T04:39:07.872Z,23.59
2019-06-02T04:39:40.801Z,23.59
2019-06-02T04:40:21.113Z,23.6
2019-06-02T04:40:53.887Z,23.6
2019-06-02T04:41:26.009Z,23.57
2019-06-02T04:41:58.061Z,23.6
2019-06-02T04:42:30.183Z,23.62
2019-06-02T04:43:02.315Z,23.62
2019-06-02T04:43:34.447Z,23.6
2019-06-02T04:44:06.567Z,23.63
2019-06-02T04:44:38.643Z,23.63
2019-06-02T04:45:12.851Z,23.67
2019-06-02T04:45:45.807Z,23.7
2019-06-02T04:46:25.045Z,23.7
2019-06-02T04:46:57.202Z,23.71
2019-06-02T04:47:36.305Z,23.71
2019-06-02T04:48:09.745Z,23.72
2019-06-02T04:48:43.084Z,23.63
2019-06-02T04:49:20.959Z,23.7
2019-06-02T04:49:57.651Z,23.71
2019-06-02T04:50:30.603Z,23.62
2019-06-02T04:51:03.695Z,23.66
2019-06-02T04:51:35.798Z,23.71
2019-06-02T04:52:07.848Z,23.67
2019-06-02T04:52:41.621Z,23.67
2019-06-02T04:53:19.021Z,23.72
2019-06-02T04:53:52.337Z,23.7
2019-06-02T04:54:24.703Z,23.72
2019-06-02T04:54:56.775Z,23.75
2019-06-02T04:55:28.887Z,23.77
2019-06-02T04:56:00.977Z,23.78
2019-06-02T04:56:33.076Z,23.78
2019-06-02T04:57:05.792Z,23.74
2019-06-02T04:57:37.830Z,23.75
2019-06-02T04:58:09.999Z,23.77
2019-06-02T04:58:43.813Z,23.84
2019-06-02T04:59:21.553Z,23.84
2019-06-02T04:59:53.728Z,23.82
2019-06-02T05:00:25.850Z,23.85
2019-06-02T05:00:57.898Z,23.84
2019-06-02T05:01:30.051Z,23.85
2019-06-02T05:02:02.161Z,23.79
2019-06-02T05:02:34.271Z,23.9
2019-06-02T05:03:06.376Z,23.87
2019-06-02T05:03:38.432Z,23.94
2019-06-02T05:04:10.647Z,23.9
2019-06-02T05:04:43.166Z,23.97
2019-06-02T05:05:22.504Z,23.87
2019-06-02T05:05:54.601Z,23.87
2019-06-02T05:06:26.753Z,23.94
2019-06-02T05:06:58.817Z,23.94
2019-06-02T05:07:30.926Z,23.96
2019-06-02T05:08:03.040Z,23.89
2019-06-02T05:08:35.127Z,23.93
2019-06-02T05:09:07.200Z,23.92
2019-06-02T05:09:39.351Z,24
2019-06-02T05:10:11.464Z,24.03
2019-06-02T05:10:44.253Z,23.99
2019-06-02T05:11:21.316Z,24.02
2019-06-02T05:11:57.309Z,24.09
2019-06-02T05:12:31.724Z,24.08
2019-06-02T05:13:03.831Z,24.08
2019-06-02T05:13:35.926Z,24.02
2019-06-02T05:14:07.982Z,24.07
2019-06-02T05:14:40.084Z,24.08
2019-06-02T05:15:12.184Z,24.08
2019-06-02T05:15:44.430Z,24.09
2019-06-02T05:16:19.651Z,24.12
2019-06-02T05:16:52.637Z,24.11
2019-06-02T05:18:01.386Z,24.22
2019-06-02T05:18:38.110Z,24.18
2019-06-02T05:19:10.156Z,24.19
2019-06-02T05:19:42.263Z,24.24
2019-06-02T05:20:15.914Z,24.22
2019-06-02T05:20:48.801Z,24.21
2019-06-02T05:21:22.493Z,24.24
2019-06-02T05:21:54.664Z,24.22
2019-06-02T05:22:27.962Z,24.3
2019-06-02T05:23:00.075Z,24.24
2019-06-02T05:23:32.190Z,24.29
2019-06-02T05:24:04.289Z,24.33
2019-06-02T05:24:36.416Z,24.3
2019-06-02T05:25:08.465Z,24.39
2019-06-02T05:25:40.565Z,24.44
2019-06-02T05:26:12.642Z,24.4
2019-06-02T05:26:44.755Z,24.42
2019-06-02T05:27:17.976Z,24.42
2019-06-02T05:27:50.865Z,24.48
2019-06-02T05:28:24.341Z,24.48
2019-06-02T05:28:56.446Z,24.48
2019-06-02T05:29:28.473Z,24.46
2019-06-02T05:30:00.581Z,24.46
2019-06-02T05:30:32.693Z,24.48
2019-06-02T05:31:04.797Z,24.54
2019-06-02T05:31:36.843Z,24.51
2019-06-02T05:32:08.939Z,24.58
2019-06-02T05:32:41.045Z,24.55
2019-06-02T05:33:13.232Z,24.58
2019-06-02T05:33:45.473Z,24.58
2019-06-02T05:34:18.662Z,24.56
2019-06-02T05:34:50.764Z,24.56
2019-06-02T05:35:24.092Z,24.63
2019-06-02T05:35:56.318Z,24.71
2019-06-02T05:36:28.388Z,24.71
2019-06-02T05:37:00.542Z,24.71
2019-06-02T05:37:32.657Z,24.69
2019-06-02T05:38:04.757Z,24.67
2019-06-02T05:38:36.835Z,24.66
2019-06-02T05:39:08.988Z,24.78
2019-06-02T05:39:41.114Z,24.78
2019-06-02T05:40:13.241Z,24.77
2019-06-02T05:40:45.487Z,24.83
2019-06-02T05:41:20.004Z,24.83
2019-06-02T05:41:52.100Z,24.86
2019-06-02T05:42:25.390Z,24.87
2019-06-02T05:42:57.429Z,24.87
2019-06-02T05:43:29.517Z,24.9
2019-06-02T05:44:01.404Z,24.96
2019-06-02T05:44:33.517Z,24.92
2019-06-02T05:45:05.631Z,24.97
2019-06-02T05:45:37.676Z,24.97
2019-06-02T05:46:09.774Z,25.01
2019-06-02T05:46:41.866Z,25.01
2019-06-02T05:47:13.971Z,24.97
2019-06-02T05:47:46.074Z,25.05
2019-06-02T05:48:19.196Z,25.01
2019-06-02T05:48:52.274Z,25.01
2019-06-02T05:49:25.669Z,25.01
2019-06-02T05:49:57.745Z,25.01
2019-06-02T05:50:29.859Z,25.05
2019-06-02T05:51:02.007Z,25.04
2019-06-02T05:51:34.183Z,25.08
2019-06-02T05:52:06.289Z,25.14
2019-06-02T05:52:38.343Z,25.15
2019-06-02T05:53:10.459Z,25.17
2019-06-02T05:53:42.563Z,25.11
2019-06-02T05:54:14.671Z,25.22
2019-06-02T05:54:46.813Z,25.2
2019-06-02T05:55:19.972Z,25.22
2019-06-02T05:55:52.893Z,25.2
2019-06-02T05:56:29.612Z,25.24
2019-06-02T05:57:01.742Z,25.29
2019-06-02T05:57:33.886Z,25.3
2019-06-02T05:58:06.025Z,25.3
2019-06-02T05:58:38.078Z,25.32
2019-06-02T05:59:10.189Z,25.34
2019-06-02T05:59:42.282Z,25.41
2019-06-02T06:00:15.119Z,25.38
2019-06-02T06:00:47.892Z,25.34
2019-06-02T06:01:23.485Z,25.33
2019-06-02T06:01:56.040Z,25.38
2019-06-02T06:02:29.562Z,25.44
2019-06-02T06:03:03.437Z,25.44
2019-06-02T06:03:35.672Z,25.44
2019-06-02T06:04:07.711Z,25.45
2019-06-02T06:04:39.837Z,25.45
2019-06-02T06:05:11.931Z,25.41
2019-06-02T06:05:44.031Z,25.42
2019-06-02T06:06:16.137Z,25.6
2019-06-02T06:06:48.232Z,25.56
2019-06-02T06:07:21.671Z,25.56
2019-06-02T06:07:54.569Z,25.57
2019-06-02T06:08:27.948Z,25.56
2019-06-02T06:09:00.107Z,25.6
2019-06-02T06:09:32.212Z,25.6
2019-06-02T06:10:04.332Z,25.56
2019-06-02T06:10:40.490Z,25.62
2019-06-02T06:11:12.583Z,25.66
2019-06-02T06:11:44.682Z,25.62
2019-06-02T06:12:16.740Z,25.67
2019-06-02T06:12:48.947Z,25.67
2019-06-02T06:13:22.257Z,25.66
2019-06-02T06:13:56.125Z,25.67
2019-06-02T06:14:31.086Z,25.7
2019-06-02T06:15:03.186Z,25.67
2019-06-02T06:15:35.298Z,25.85
2019-06-02T06:16:07.356Z,25.7
2019-06-02T06:16:39.448Z,25.81
2019-06-02T06:17:11.554Z,25.78
2019-06-02T06:17:43.675Z,25.81
2019-06-02T06:18:29.641Z,25.81
2019-06-02T06:19:03.051Z,25.89
2019-06-02T06:19:35.171Z,25.86
2019-06-02T06:20:07.220Z,25.85
2019-06-02T06:20:39.311Z,25.88
2019-06-02T06:21:11.422Z,25.89
2019-06-02T06:21:43.529Z,25.96
2019-06-02T06:22:15.628Z,25.89
2019-06-02T06:22:47.665Z,25.93
2019-06-02T06:23:19.774Z,25.97
2019-06-02T06:23:52.972Z,25.94
2019-06-02T06:24:26.361Z,26.07
2019-06-02T06:24:58.565Z,25.96
2019-06-02T06:25:32.233Z,26.03
2019-06-02T06:26:04.478Z,26.01
2019-06-02T06:26:36.763Z,25.99
2019-06-02T06:27:08.865Z,26.07
2019-06-02T06:27:40.987Z,26.04
2019-06-02T06:28:13.111Z,26.11
2019-06-02T06:28:45.212Z,26.11
2019-06-02T06:29:17.258Z,26.09
2019-06-02T06:29:49.363Z,26.11
2019-06-02T06:30:22.596Z,26.15
2019-06-02T06:30:55.193Z,26.11
2019-06-02T06:31:31.422Z,26.07
2019-06-02T06:32:03.533Z,26.15
2019-06-02T06:32:35.653Z,26.22
2019-06-02T06:33:07.706Z,26.23
2019-06-02T06:33:39.812Z,26.19
2019-06-02T06:34:11.935Z,26.26
2019-06-02T06:34:44.089Z,26.27
2019-06-02T06:35:16.219Z,26.27
2019-06-02T06:35:48.292Z,26.23
2019-06-02T06:36:20.411Z,26.22
2019-06-02T06:36:53.725Z,26.38
2019-06-02T06:37:28.381Z,26.34
2019-06-02T06:38:00.491Z,26.38
2019-06-02T06:38:33.911Z,26.35
2019-06-02T06:39:23.214Z,26.41
2019-06-02T06:39:59.993Z,26.37
2019-06-02T06:40:33.841Z,26.44
2019-06-02T06:41:05.944Z,26.42
2019-06-02T06:41:37.990Z,26.42
2019-06-02T06:42:10.194Z,26.41
2019-06-02T06:42:42.301Z,26.42
2019-06-02T06:43:14.445Z,26.49
2019-06-02T06:43:46.558Z,26.47
2019-06-02T06:44:18.660Z,26.53
2019-06-02T06:44:50.747Z,26.5
2019-06-02T06:45:25.882Z,26.53
2019-06-02T06:45:58.835Z,26.53
2019-06-02T06:46:32.236Z,26.54
2019-06-02T06:47:04.358Z,26.61
2019-06-02T06:47:37.909Z,26.54
2019-06-02T06:48:10.035Z,26.57
2019-06-02T06:48:50.126Z,26.6
2019-06-02T06:49:23.040Z,26.64
2019-06-02T06:49:55.788Z,26.71
2019-06-02T06:50:37.179Z,26.64
2019-06-02T06:51:09.292Z,26.67
2019-06-02T06:51:41.396Z,26.69
2019-06-02T06:52:13.519Z,26.76
2019-06-02T06:52:45.653Z,26.76
2019-06-02T06:53:17.704Z,26.76
2019-06-02T06:53:49.801Z,26.82
2019-06-02T06:54:22.022Z,26.78
2019-06-02T06:54:54.733Z,26.75
2019-06-02T06:55:29.431Z,26.86
2019-06-02T06:56:02.829Z,26.89
2019-06-02T06:56:35.083Z,26.86
2019-06-02T06:57:07.179Z,26.84
2019-06-02T06:57:39.292Z,26.91
2019-06-02T06:58:11.445Z,27.04
2019-06-02T06:58:43.937Z,26.91
2019-06-02T06:59:16.032Z,26.97
2019-06-02T06:59:48.155Z,27
2019-06-02T07:00:20.244Z,27.04
2019-06-02T07:00:52.363Z,27.01
2019-06-02T07:01:24.470Z,27
2019-06-02T07:01:56.602Z,27.04
2019-06-02T07:02:30.830Z,27.09
2019-06-02T07:03:03.605Z,27.11
2019-06-02T07:03:37.140Z,27.12
2019-06-02T07:04:09.252Z,27.13
2019-06-02T07:04:41.374Z,27.19
2019-06-02T07:05:16.610Z,27.21
2019-06-02T07:05:49.005Z,27.26
2019-06-02T07:06:21.105Z,27.18
2019-06-02T07:06:53.213Z,27.3
2019-06-02T07:07:26.504Z,27.31
2019-06-02T07:07:58.627Z,27.27
2019-06-02T07:08:32.096Z,27.28